Time;durP1;ratioP1;P1;durP2;ratioP2;P2;SDS_P1;SDS_P2;PMS_P1;PMS_P2;Temp;Humidity;BMP_temperature;BMP_pressure;BME280_temperature;BME280_humidity;BME280_pressure;Samples;Min_cycle;Max_cycle;Signal;HPM_P1;HPM_P2
2020/12/12 00:02:21;;;;;;;51.28;32.40;;;5.60;73.20;7.30;98345.00;;;;5060746;28;20453;-81
2020/12/12 00:04:48;;;;;;;45.47;32.50;;;5.60;73.20;7.40;98354.00;;;;5081052;28;20917;-80
2020/12/12 00:07:17;;;;;;;45.77;31.23;;;5.70;73.30;7.40;98337.00;;;;5084752;28;20748;-81
2020/12/12 00:09:44;;;;;;;45.17;31.30;;;5.70;73.20;7.40;98344.00;;;;5067132;28;20471;-81
2020/12/12 00:12:11;;;;;;;44.95;31.50;;;5.70;73.10;7.40;98335.00;;;;5063690;28;20417;-80
2020/12/12 00:14:39;;;;;;;42.58;29.83;;;5.80;72.90;7.30;98353.00;;;;5059151;28;20793;-80
2020/12/12 00:17:07;;;;;;;40.85;28.60;;;5.70;72.30;7.30;98355.00;;;;5067295;28;20491;-81
2020/12/12 00:19:34;;;;;;;42.60;29.70;;;5.60;72.40;7.40;98354.00;;;;5064456;28;20424;-80
2020/12/12 00:22:02;;;;;;;41.40;30.30;;;5.70;73.00;7.40;98348.00;;;;5062730;28;20441;-80
2020/12/12 00:24:30;;;;;;;43.53;30.08;;;5.70;72.80;7.40;98338.00;;;;5057454;28;20442;-80
2020/12/12 00:26:58;;;;;;;43.53;30.50;;;5.70;72.60;7.40;98353.00;;;;5055719;28;20456;-81
2020/12/12 00:29:26;;;;;;;40.15;28.95;;;5.70;72.60;7.40;98356.00;;;;5056820;28;20516;-80
2020/12/12 00:31:55;;;;;;;40.63;29.33;;;5.70;72.30;7.40;98350.00;;;;5058500;28;20470;-79
2020/12/12 00:34:25;;;;;;;40.78;28.75;;;5.60;72.30;7.40;98357.00;;;;5045864;28;22946;-81
2020/12/12 00:36:52;;;;;;;40.20;29.30;;;5.70;72.90;7.50;98352.00;;;;5066479;28;20524;-80
2020/12/12 00:39:21;;;;;;;40.05;28.50;;;5.70;72.70;7.40;98349.00;;;;5056966;28;20446;-81
2020/12/12 00:41:54;;;;;;;43.42;29.70;;;5.80;72.50;7.40;98347.00;;;;5057421;28;20451;-81
2020/12/12 00:44:22;;;;;;;43.97;29.88;;;5.70;72.80;52.70;159875.00;;;;5056111;28;20486;-79
2020/12/12 00:46:50;;;;;;;43.07;29.93;;;5.70;73.00;7.40;98339.00;;;;5055692;28;20421;-79
2020/12/12 00:49:18;;;;;;;44.08;30.30;;;5.70;73.00;7.40;98368.00;;;;5058958;28;20413;-80
2020/12/12 00:51:46;;;;;;;41.65;28.95;;;5.80;73.00;7.40;98362.00;;;;5055996;28;20417;-80
2020/12/12 00:54:14;;;;;;;39.65;28.98;;;5.80;73.00;7.40;98354.00;;;;5082181;28;20410;-81
2020/12/12 00:56:42;;;;;;;41.05;28.63;;;5.70;72.70;7.40;98365.00;;;;5079245;28;20453;-80
2020/12/12 00:59:11;;;;;;;42.00;28.63;;;5.70;73.10;7.40;98353.00;;;;5058064;28;20925;-79
2020/12/12 01:01:38;;;;;;;40.97;29.88;;;5.70;73.50;7.40;98362.00;;;;5058672;28;20445;-81
2020/12/12 01:04:06;;;;;;;40.58;28.40;;;5.70;73.20;7.40;98351.00;;;;5068659;28;20527;-82
2020/12/12 01:06:33;;;;;;;42.38;29.40;;;5.70;73.50;7.40;98353.00;;;;5060178;28;20824;-81
2020/12/12 01:09:01;;;;;;;43.53;29.50;;;5.70;73.20;7.40;98352.00;;;;5063381;28;20778;-79
2020/12/12 01:11:28;;;;;;;43.85;29.60;;;5.70;73.30;7.40;98368.00;;;;5078629;28;20486;-81
2020/12/12 01:13:56;;;;;;;43.22;28.95;;;5.70;73.50;7.40;98361.00;;;;5103329;28;20418;-80
2020/12/12 01:16:24;;;;;;;43.97;30.35;;;5.70;73.40;7.40;98362.00;;;;5073808;28;20488;-80
2020/12/12 01:18:52;;;;;;;42.77;30.57;;;5.70;73.30;7.40;98351.00;;;;5073451;28;20421;-81
2020/12/12 01:21:20;;;;;;;44.83;29.17;;;5.70;73.30;7.40;98362.00;;;;5064477;28;20421;-81
2020/12/12 01:23:47;;;;;;;42.45;28.42;;;5.70;73.60;7.40;98366.00;;;;5083203;28;20431;-79
2020/12/12 01:26:15;;;;;;;43.20;29.60;;;5.70;73.90;7.40;98366.00;;;;5072485;28;20521;-80
2020/12/12 01:28:42;;;;;;;44.10;30.02;;;5.70;73.40;7.50;98366.00;;;;5071622;28;20436;-81
2020/12/12 01:31:12;;;;;;;43.90;29.05;;;5.80;73.40;7.40;98366.00;;;;5057386;28;20418;-81
2020/12/12 01:33:41;;;;;;;45.53;30.55;;;5.70;73.40;7.50;98368.00;;;;5059723;28;20421;-82
2020/12/12 01:36:08;;;;;;;44.70;30.23;;;5.80;73.40;7.50;98367.00;;;;5065973;28;20917;-81
2020/12/12 01:38:36;;;;;;;41.60;29.13;;;5.80;73.40;7.40;98369.00;;;;5055481;28;20492;-81
2020/12/12 01:41:04;;;;;;;42.55;28.50;;;5.80;73.20;7.40;98360.00;;;;5055003;28;20479;-80
2020/12/12 01:43:31;;;;;;;40.20;28.20;;;5.80;73.10;7.40;98367.00;;;;5055140;28;20563;-80
2020/12/12 01:45:59;;;;;;;38.10;27.27;;;5.80;73.00;7.50;98352.00;;;;5055785;28;20817;-80
2020/12/12 01:48:26;;;;;;;38.85;28.30;;;5.80;73.50;7.50;98345.00;;;;5054794;28;20413;-81
2020/12/12 01:50:57;;;;;;;42.50;29.58;;;5.80;73.40;7.50;98356.00;;;;5053922;28;20425;-82
2020/12/12 01:53:27;;;;;;;41.95;28.95;;;5.80;73.10;7.50;98347.00;;;;5062522;28;20408;-82
2020/12/12 01:55:55;;;;;;;39.05;27.65;;;5.90;73.30;7.50;98366.00;;;;5053985;28;20424;-82
2020/12/12 01:58:22;;;;;;;36.90;27.42;;;5.90;73.10;7.50;98372.00;;;;5069987;28;20424;-82
2020/12/12 02:00:50;;;;;;;39.55;27.45;;;5.80;72.80;7.50;98365.00;;;;5051752;28;20830;-82
2020/12/12 02:03:24;;;;;;;39.35;28.20;;;5.80;73.20;7.50;98369.00;;;;5058546;28;20417;-81
2020/12/12 02:05:57;;;;;;;40.13;27.60;;;5.80;73.30;7.50;98355.00;;;;5050930;28;20421;-82
2020/12/12 02:08:25;;;;;;;41.08;28.00;;;5.80;73.40;7.50;98372.00;;;;5051512;28;20457;-82
2020/12/12 02:10:52;;;;;;;41.25;28.58;;;5.80;73.20;7.50;98375.00;;;;5037249;28;20911;-82
2020/12/12 02:13:20;;;;;;;41.87;28.40;;;5.80;73.20;7.50;98371.00;;;;5051702;28;20421;-81
2020/12/12 02:15:47;;;;;;;39.70;27.70;;;5.90;73.30;7.50;98360.00;;;;5052632;28;21009;-82
2020/12/12 02:18:19;;;;;;;39.35;26.90;;;5.80;73.20;7.50;98366.00;;;;5046288;28;20435;-82
2020/12/12 02:20:51;;;;;;;40.13;28.10;;;5.80;73.40;7.50;98381.00;;;;5059948;28;20415;-81
2020/12/12 02:23:21;;;;;;;41.75;28.27;;;5.80;73.20;7.50;98378.00;;;;5076173;28;20433;-81
2020/12/12 02:25:49;;;;;;;42.33;28.50;;;5.80;73.20;7.50;98372.00;;;;5072278;28;20521;-82
2020/12/12 02:28:20;;;;;;;40.25;28.50;;;5.90;73.40;7.50;98375.00;;;;5073194;28;20449;-80
2020/12/12 02:30:47;;;;;;;40.67;28.95;;;5.80;73.20;7.50;98371.00;;;;5061658;28;20417;-81
2020/12/12 02:33:15;;;;;;;39.92;28.67;;;5.90;73.20;7.60;98356.00;;;;5066940;28;20514;-81
2020/12/12 02:35:42;;;;;;;37.67;27.83;;;5.90;73.40;7.60;98375.00;;;;5069443;28;20444;-81
2020/12/12 02:38:10;;;;;;;41.95;29.00;;;6.00;73.30;7.60;98364.00;;;;5076907;28;20409;-78
2020/12/12 02:40:39;;;;;;;42.03;29.15;;;6.00;73.20;7.60;98360.00;;;;5091493;28;20413;-80
2020/12/12 02:43:12;;;;;;;42.17;29.40;;;5.90;72.90;7.60;98349.00;;;;5074238;28;20476;-81
2020/12/12 02:45:40;;;;;;;43.63;29.35;;;5.90;73.00;7.60;98366.00;;;;5057776;28;20846;-82
2020/12/12 02:48:08;;;;;;;42.58;29.40;;;5.90;73.20;7.50;98370.00;;;;5050627;28;20482;-82
2020/12/12 02:50:35;;;;;;;44.88;29.55;;;5.80;73.90;7.50;98360.00;;;;5037650;28;20992;-81
2020/12/12 02:53:03;;;;;;;43.67;30.02;;;5.80;73.40;7.50;98364.00;;;;5053310;28;20424;-81
2020/12/12 02:55:30;;;;;;;43.17;30.00;;;5.80;73.40;7.50;98363.00;;;;5061431;28;20417;-81
2020/12/12 02:57:58;;;;;;;42.53;29.10;;;5.80;73.50;7.60;98360.00;;;;5055121;28;20421;-81
2020/12/12 03:00:28;;;;;;;41.55;29.30;;;5.90;73.60;7.50;98349.00;;;;5056513;28;20475;-81
2020/12/12 03:02:55;;;;;;;44.97;30.48;;;5.90;73.60;7.60;98357.00;;;;5058500;28;20420;-81
2020/12/12 03:05:23;;;;;;;42.85;30.35;;;5.90;73.30;7.50;98368.00;;;;5060966;28;20414;-81
2020/12/12 03:07:50;;;;;;;44.45;29.98;;;5.80;72.90;7.60;98371.00;;;;5044560;28;20491;-81
2020/12/12 03:10:18;;;;;;;41.75;29.33;;;5.90;73.20;7.60;98360.00;;;;5062206;28;20465;-81
2020/12/12 03:12:45;;;;;;;43.95;29.70;;;5.90;73.20;7.50;98371.00;;;;5039927;28;20419;-81
2020/12/12 03:15:13;;;;;;;41.88;30.08;;;5.80;73.20;7.50;98368.00;;;;5052007;28;20414;-81
2020/12/12 03:17:41;;;;;;;40.53;29.30;;;5.80;73.20;7.50;98377.00;;;;5082024;28;20736;-81
2020/12/12 03:20:08;;;;;;;40.05;29.25;;;5.80;73.40;7.40;98376.00;;;;5088645;28;20433;-81
2020/12/12 03:22:55;;;;;;;43.07;29.60;;;5.80;73.20;7.40;98369.00;;;;5085249;28;20449;-82
2020/12/12 03:25:22;;;;;;;41.93;29.60;;;5.80;73.50;7.40;98368.00;;;;5077794;28;20428;-81
2020/12/12 03:27:49;;;;;;;40.58;29.23;;;5.80;73.50;7.40;98368.00;;;;5078067;28;20459;-82
2020/12/12 03:30:17;;;;;;;42.22;30.20;;;5.80;73.30;7.40;98369.00;;;;5082691;28;20417;-82
2020/12/12 03:32:45;;;;;;;43.57;29.80;;;5.70;73.20;7.40;98375.00;;;;5065012;28;20559;-81
2020/12/12 03:35:12;;;;;;;45.05;29.55;;;5.70;73.30;7.40;98383.00;;;;5067775;28;20459;-81
2020/12/12 03:37:40;;;;;;;44.70;30.02;;;5.80;73.50;7.40;98380.00;;;;5060419;28;20421;-80
2020/12/12 03:40:07;;;;;;;41.25;29.42;;;5.70;73.50;7.30;98368.00;;;;5057718;28;20944;-81
2020/12/12 03:42:35;;;;;;;45.63;30.63;;;5.70;73.30;7.30;98372.00;;;;5057810;28;20467;-81
2020/12/12 03:45:02;;;;;;;42.38;30.48;;;5.60;73.50;7.30;98382.00;;;;5057292;28;20430;-81
2020/12/12 03:47:31;;;;;;;43.50;29.70;;;5.70;73.80;7.30;98375.00;;;;5057499;28;20418;-82
2020/12/12 03:49:58;;;;;;;43.22;30.30;;;5.70;73.90;7.30;98384.00;;;;5056478;28;20425;-81
2020/12/12 03:52:25;;;;;;;43.28;29.80;;;5.50;73.90;7.30;98387.00;;;;5058285;28;20591;-81
2020/12/12 03:54:53;;;;;;;47.93;31.50;;;5.70;74.00;7.40;98388.00;;;;5062254;28;20453;-81
2020/12/12 03:57:20;;;;;;;47.45;31.30;;;5.70;74.10;7.40;98376.00;;;;5074947;28;20436;-81
2020/12/12 03:59:48;;;;;;;45.00;31.05;;;5.70;74.00;7.40;98389.00;;;;5061807;28;20992;-81
2020/12/12 04:02:15;;;;;;;43.40;30.85;;;5.70;74.10;7.40;98380.00;;;;5054405;28;20417;-81
2020/12/12 04:04:43;;;;;;;48.72;31.95;;;5.70;74.10;7.40;98387.00;;;;5058541;28;20425;-82
2020/12/12 04:07:11;;;;;;;47.42;31.40;;;5.80;74.00;7.40;98369.00;;;;5076422;28;20425;-82
2020/12/12 04:09:38;;;;;;;47.37;31.43;;;5.80;74.20;7.50;98380.00;;;;5077077;28;20444;-82
2020/12/12 04:12:06;;;;;;;44.03;30.30;;;5.80;74.10;7.50;98380.00;;;;5071798;28;20440;-81
2020/12/12 04:14:33;;;;;;;45.88;30.85;;;5.80;73.90;7.50;98388.00;;;;5056915;28;20444;-81
2020/12/12 04:17:00;;;;;;;46.78;31.52;;;5.90;73.90;7.50;98386.00;;;;5056779;28;20418;-80
2020/12/12 04:19:28;;;;;;;44.25;31.08;;;5.90;73.80;7.60;98379.00;;;;5073676;28;20512;-81
2020/12/12 04:21:56;;;;;;;43.58;30.45;;;5.90;73.50;7.50;67928.00;;;;5056518;28;20858;-81
2020/12/12 04:24:24;;;;;;;43.75;30.30;;;5.90;73.60;7.50;98387.00;;;;5055958;28;21054;-80
2020/12/12 04:26:51;;;;;;;43.35;30.60;;;5.90;73.50;7.50;98393.00;;;;5055583;28;20917;-81
2020/12/12 04:29:18;;;;;;;42.17;29.73;;;5.90;73.60;7.50;67919.00;;;;5055940;28;20461;-81
2020/12/12 04:31:46;;;;;;;40.67;29.50;;;5.90;73.50;7.50;98391.00;;;;5056022;28;20446;-82
2020/12/12 04:34:14;;;;;;;39.90;28.27;;;5.90;73.50;7.50;98371.00;;;;5057582;28;20421;-81
2020/12/12 04:36:41;;;;;;;42.90;29.38;;;5.90;73.50;7.50;98386.00;;;;5055992;28;20424;-81
2020/12/12 04:39:12;;;;;;;42.47;30.23;;;5.90;73.50;7.50;98392.00;;;;5052597;28;20442;-82
2020/12/12 04:41:42;;;;;;;40.55;28.98;;;5.90;73.30;7.50;98388.00;;;;5055299;28;20419;-82
2020/12/12 04:44:10;;;;;;;39.95;29.20;;;5.80;73.30;7.40;98399.00;;;;5086835;28;20925;-81
2020/12/12 04:46:38;;;;;;;42.03;29.10;;;5.80;73.50;7.50;98392.00;;;;5066468;28;20535;-83
2020/12/12 04:49:06;;;;;;;38.87;28.07;;;5.80;73.70;7.50;98384.00;;;;5069483;28;20439;-82
2020/12/12 04:51:34;;;;;;;36.13;27.88;;;5.90;73.60;7.50;98381.00;;;;5045579;28;20427;-82
2020/12/12 04:54:03;;;;;;;38.85;28.45;;;5.90;73.30;7.40;98387.00;;;;5069533;28;20417;-82
2020/12/12 04:56:36;;;;;;;39.38;28.17;;;5.80;73.20;7.50;98392.00;;;;5046987;28;20451;-82
2020/12/12 04:59:04;;;;;;;36.25;28.10;;;5.80;73.10;7.50;98404.00;;;;5066551;28;20569;-82
2020/12/12 05:01:33;;;;;;;36.92;27.05;;;5.80;73.60;7.50;98394.00;;;;5063321;28;20414;-81
2020/12/12 05:04:03;;;;;;;34.35;27.10;;;5.80;73.10;7.50;98405.00;;;;5056948;28;20421;-81
2020/12/12 05:06:30;;;;;;;37.28;27.00;;;5.80;73.00;7.60;98400.00;;;;5056108;28;20425;-81
2020/12/12 05:08:58;;;;;;;36.07;27.17;;;5.90;73.20;7.60;98411.00;;;;5071312;28;20417;-82
2020/12/12 05:11:26;;;;;;;38.65;28.65;;;6.00;73.20;7.60;98408.00;;;;5071047;28;20424;-82
2020/12/12 05:13:55;;;;;;;36.92;28.50;;;6.00;72.90;7.70;98414.00;;;;5054639;28;20840;-82
2020/12/12 05:16:23;;;;;;;37.25;26.80;;;6.00;72.70;7.70;98421.00;;;;5038997;28;20410;-82
2020/12/12 05:18:51;;;;;;;36.10;26.60;;;6.00;72.50;7.70;98403.00;;;;5053492;28;20458;-81
2020/12/12 05:21:19;;;;;;;33.50;26.03;;;6.00;72.40;7.70;98413.00;;;;5056252;28;20447;-81
2020/12/12 05:23:46;;;;;;;34.95;27.30;;;6.00;72.50;7.70;98423.00;;;;5053776;28;20417;-81
2020/12/12 05:26:19;;;;;;;36.70;27.17;;;6.00;72.30;7.70;98420.00;;;;5054059;28;20900;-82
2020/12/12 05:28:47;;;;;;;38.05;26.27;;;5.90;72.50;7.70;98423.00;;;;5054398;28;20485;-83
2020/12/12 05:31:16;;;;;;;36.80;26.58;;;6.00;72.30;7.70;98424.00;;;;5058574;28;20421;-82
2020/12/12 05:33:44;;;;;;;33.92;26.60;;;6.00;72.30;7.80;98406.00;;;;5066478;28;20431;-82
2020/12/12 05:36:11;;;;;;;34.90;26.10;;;6.10;72.30;7.80;98422.00;;;;5066635;28;20433;-81
2020/12/12 05:38:40;;;;;;;30.75;24.88;;;6.10;72.10;7.80;98414.00;;;;5055646;28;20429;-82
2020/12/12 05:41:08;;;;;;;33.80;26.33;;;6.10;71.80;7.80;98418.00;;;;5073011;28;20435;-83
2020/12/12 05:43:37;;;;;;;33.20;25.60;;;6.10;71.60;7.80;98416.00;;;;5072476;28;20442;-83
2020/12/12 05:46:04;;;;;;;36.38;28.35;;;6.00;71.80;7.80;98410.00;;;;5058314;28;20436;-81
2020/12/12 05:48:33;;;;;;;35.72;27.00;;;6.00;71.90;7.60;98440.00;;;;5067896;28;20417;-81
2020/12/12 05:51:01;;;;;;;35.95;27.27;;;6.00;72.00;7.70;98436.00;;;;5088255;28;20444;-81
2020/12/12 05:53:30;;;;;;;35.15;26.92;;;6.00;72.40;7.70;98433.00;;;;5074214;28;20417;-82
2020/12/12 05:55:58;;;;;;;39.60;27.88;;;6.00;72.50;7.60;98434.00;;;;5065083;28;20444;-81
2020/12/12 05:58:27;;;;;;;38.35;27.85;;;6.00;72.50;7.60;98427.00;;;;5070505;28;20439;-82
2020/12/12 06:00:55;;;;;;;38.45;28.30;;;5.90;72.50;7.60;98443.00;;;;5052536;28;20414;-81
2020/12/12 06:03:32;;;;;;;38.38;28.30;;;5.90;72.80;7.60;98445.00;;;;5037071;28;20853;-82
2020/12/12 06:06:04;;;;;;;37.78;27.98;;;5.90;72.90;7.50;98441.00;;;;5035741;28;20415;-81
2020/12/12 06:08:35;;;;;;;40.95;29.77;;;5.90;73.10;7.60;98448.00;;;;5052317;28;20523;-81
2020/12/12 06:11:05;;;;;;;41.50;28.80;;;5.90;73.10;7.50;98454.00;;;;5064549;28;21053;-81
2020/12/12 06:13:36;;;;;;;40.72;29.50;;;5.90;73.10;7.50;98450.00;;;;5055570;28;20832;-81
2020/12/12 06:16:07;;;;;;;36.88;27.67;;;5.90;73.90;7.40;98447.00;;;;5055669;28;20415;-81
2020/12/12 06:18:57;;;;;;;39.05;29.35;;;5.80;73.90;7.50;98440.00;;;;5071514;28;20429;-82
2020/12/12 06:21:24;;;;;;;39.17;29.13;;;5.80;73.60;7.50;98451.00;;;;5054469;28;20950;-81
2020/12/12 06:23:54;;;;;;;41.97;30.58;;;5.80;73.60;7.50;98454.00;;;;5047157;28;20458;-81
2020/12/12 06:26:40;;;;;;;38.60;28.35;;;5.80;73.60;7.50;98439.00;;;;5045687;28;20909;-82
2020/12/12 06:29:12;;;;;;;37.47;27.90;;;5.80;73.70;7.40;98447.00;;;;5073262;28;20435;-81
2020/12/12 06:31:39;;;;;;;37.38;27.98;;;5.70;73.60;7.40;98458.00;;;;5060786;28;20407;-80
2020/12/12 06:34:08;;;;;;;36.15;27.95;;;5.80;73.60;7.40;98460.00;;;;5068836;28;21153;-81
2020/12/12 06:36:36;;;;;;;36.95;27.85;;;5.80;73.30;7.40;98459.00;;;;5054231;28;20448;-81
2020/12/12 06:39:19;;;;;;;34.50;27.00;;;5.70;73.30;7.40;98466.00;;;;5056875;28;20544;-81
2020/12/12 06:41:49;;;;;;;34.15;27.10;;;5.80;73.50;7.50;98458.00;;;;5054978;28;20836;-81
2020/12/12 06:44:37;;;;;;;36.00;26.67;;;5.80;73.40;7.50;98463.00;;;;5053629;28;20429;-83
2020/12/12 06:47:06;;;;;;;31.80;25.38;;;5.80;73.40;7.50;98459.00;;;;5066894;28;20479;-82
2020/12/12 06:49:35;;;;;;;33.57;25.63;;;5.80;73.20;7.60;98477.00;;;;5053078;28;20516;-82
2020/12/12 06:52:03;;;;;;;32.22;24.95;;;5.80;73.10;7.60;98474.00;;;;5058033;28;20416;-82
2020/12/12 06:54:31;;;;;;;31.83;24.90;;;5.90;73.00;7.60;98469.00;;;;5050049;28;20443;-82
2020/12/12 06:56:58;;;;;;;31.40;25.13;;;6.00;73.00;7.60;98472.00;;;;5066379;28;20422;-82
2020/12/12 06:59:31;;;;;;;28.63;23.02;;;5.90;72.90;7.60;98486.00;;;;5057237;28;20423;-80
2020/12/12 07:02:00;;;;;;;29.50;23.90;;;5.90;72.60;7.60;98486.00;;;;5060077;28;20482;-80
2020/12/12 07:04:30;;;;;;;29.25;23.75;;;5.80;72.60;7.60;98498.00;;;;5070668;28;20449;-80
2020/12/12 07:07:08;;;;;;;28.60;23.40;;;5.80;72.80;7.60;98501.00;;;;5059747;28;20509;-80
2020/12/12 07:09:37;;;;;;;29.58;23.25;;;5.90;72.80;7.60;98480.00;;;;5062601;28;20425;-80
2020/12/12 07:12:05;;;;;;;31.08;23.67;;;5.90;72.70;7.70;98496.00;;;;5063508;28;20422;-82
2020/12/12 07:14:33;;;;;;;26.75;22.50;;;5.90;72.80;7.70;98497.00;;;;5066139;28;20454;-82
2020/12/12 07:17:01;;;;;;;25.45;21.60;;;5.90;72.60;7.70;98494.00;;;;5057401;28;20927;-82
2020/12/12 07:19:35;;;;;;;26.15;21.80;;;5.90;72.40;7.80;98504.00;;;;5069544;28;20421;-83
2020/12/12 07:22:08;;;;;;;23.33;20.63;;;6.00;73.00;7.80;98505.00;;;;5067980;28;20474;-81
2020/12/12 07:24:36;;;;;;;25.25;20.90;;;6.00;72.00;7.80;98502.00;;;;5063670;28;20451;-80
2020/12/12 07:27:05;;;;;;;25.13;20.77;;;6.00;72.00;7.80;98501.00;;;;5060967;28;20424;-81
2020/12/12 07:29:33;;;;;;;25.50;21.20;;;6.00;71.70;7.90;98481.00;;;;5061249;28;20417;-81
2020/12/12 07:32:01;;;;;;;26.52;21.10;;;6.10;71.60;7.90;98515.00;;;;5082887;28;20399;-81
2020/12/12 07:34:29;;;;;;;24.30;21.15;;;6.10;71.60;217.30;160085.00;;;;5103683;28;20440;-82
2020/12/12 07:36:59;;;;;;;24.58;20.90;;;6.10;71.60;7.90;98525.00;;;;5078690;28;20440;-83
2020/12/12 07:39:29;;;;;;;25.23;20.85;;;6.10;71.40;7.90;98529.00;;;;5075294;28;20435;-80
2020/12/12 07:41:59;;;;;;;24.67;20.50;;;6.10;71.70;7.90;98530.00;;;;5050867;28;20510;-80
2020/12/12 07:44:29;;;;;;;23.45;20.00;;;6.10;71.50;7.90;98536.00;;;;5061986;28;20425;-82
2020/12/12 07:47:03;;;;;;;24.35;20.75;;;6.10;71.30;7.90;98537.00;;;;5059106;28;20439;-81
2020/12/12 07:49:31;;;;;;;24.15;19.48;;;6.20;71.70;7.80;98540.00;;;;5064637;28;20426;-82
2020/12/12 07:52:06;;;;;;;23.83;20.20;;;6.10;71.60;7.80;98538.00;;;;5057943;28;20448;-82
2020/12/12 07:54:39;;;;;;;21.83;19.30;;;6.10;72.40;7.90;98552.00;;;;5076651;28;20410;-81
2020/12/12 07:57:11;;;;;;;23.80;20.10;;;6.10;71.90;7.90;98540.00;;;;5092843;28;20408;-83
2020/12/12 07:59:39;;;;;;;24.08;20.98;;;6.10;72.10;7.90;98554.00;;;;5076575;28;20496;-83
2020/12/12 08:02:09;;;;;;;27.48;21.63;;;6.00;71.70;7.80;98556.00;;;;5086392;28;20492;-81
2020/12/12 08:04:37;;;;;;;25.38;21.40;;;6.10;72.30;7.80;98528.00;;;;5061842;28;20420;-82
2020/12/12 08:07:12;;;;;;;25.52;20.35;;;6.10;72.40;7.70;98559.00;;;;5066267;28;20448;-81
2020/12/12 08:09:48;;;;;;;25.97;21.70;;;6.10;72.40;7.70;98556.00;;;;5057965;28;20413;-81
2020/12/12 08:12:29;;;;;;;26.98;21.42;;;6.00;72.80;7.70;98563.00;;;;5055331;28;20504;-82
2020/12/12 08:14:59;;;;;;;27.63;22.50;;;6.00;73.00;7.70;98587.00;;;;5057312;28;20457;-82
2020/12/12 08:17:33;;;;;;;27.65;22.25;;;5.80;73.10;7.70;98584.00;;;;5058098;28;20421;-82
2020/12/12 08:20:02;;;;;;;28.17;23.10;;;6.00;73.20;7.70;98583.00;;;;5048646;28;20496;-80
2020/12/12 08:22:37;;;;;;;27.05;22.73;;;6.00;73.10;7.70;98585.00;;;;5059672;28;20445;-80
2020/12/12 08:25:08;;;;;;;28.92;22.52;;;6.00;73.30;7.70;98585.00;;;;5064973;28;20409;-82
2020/12/12 08:27:35;;;;;;;29.85;23.80;;;6.00;73.40;7.80;98590.00;;;;5090575;28;20419;-82
2020/12/12 08:30:07;;;;;;;29.98;23.55;;;6.00;73.30;7.80;98596.00;;;;5082321;28;20421;-81
2020/12/12 08:32:37;;;;;;;29.02;23.17;;;6.00;73.20;7.80;98579.00;;;;5071590;28;20441;-80
2020/12/12 08:35:17;;;;;;;29.70;23.05;;;6.00;73.10;7.80;98607.00;;;;5044738;28;20411;-81
2020/12/12 08:38:04;;;;;;;30.00;24.00;;;6.00;73.20;7.80;98611.00;;;;5075860;28;20425;-81
2020/12/12 08:40:34;;;;;;;29.50;24.13;;;6.00;73.20;7.80;98604.00;;;;5077295;28;20459;-81
2020/12/12 08:43:07;;;;;;;29.50;23.65;;;6.10;73.80;7.90;68012.00;;;;5074101;28;20416;-81
2020/12/12 08:45:37;;;;;;;30.13;24.02;;;6.10;73.20;7.90;98612.00;;;;5069667;28;20421;-81
2020/12/12 08:48:08;;;;;;;27.38;23.27;;;6.10;72.90;7.90;98631.00;;;;5071069;28;20430;-80
2020/12/12 08:50:48;;;;;;;29.40;23.38;;;6.30;72.70;7.90;98627.00;;;;5041705;28;20413;-80
2020/12/12 08:53:25;;;;;;;28.52;23.95;;;6.10;72.50;7.90;98635.00;;;;5057679;28;20987;-80
2020/12/12 08:56:12;;;;;;;29.40;23.83;;;6.10;72.50;7.80;98641.00;;;;5064596;28;20455;-81
2020/12/12 08:58:48;;;;;;;26.63;23.13;;;6.10;72.50;7.80;98638.00;;;;5057056;28;20464;-81
2020/12/12 09:01:30;;;;;;;29.88;24.98;;;6.10;72.60;7.90;98642.00;;;;5055913;28;20451;-81
2020/12/12 09:04:20;;;;;;;29.00;24.17;;;6.10;72.60;7.80;68019.00;;;;5055008;28;20421;-81
2020/12/12 09:06:51;;;;;;;29.05;23.90;;;6.10;72.50;8.00;98648.00;;;;5049368;28;20788;-80
2020/12/12 09:09:20;;;;;;;28.27;24.30;;;6.20;72.90;8.00;98658.00;;;;5065361;28;20453;-81
2020/12/12 09:11:55;;;;;;;29.57;25.23;;;6.20;72.10;8.20;98638.00;;;;5064400;28;20413;-81
2020/12/12 09:14:23;;;;;;;29.88;24.77;;;6.30;72.00;217.30;160198.00;;;;5062301;28;20424;-81
2020/12/12 09:16:55;;;;;;;30.30;24.63;;;6.40;72.00;8.20;98642.00;;;;5061007;28;20983;-81
2020/12/12 09:19:24;;;;;;;29.98;24.50;;;6.40;72.00;8.10;98664.00;;;;5065662;28;20470;-80
2020/12/12 09:21:52;;;;;;;30.30;24.90;;;6.40;71.70;8.20;98670.00;;;;5062603;28;20424;-79
2020/12/12 09:24:22;;;;;;;29.90;24.58;;;6.40;71.50;8.20;98659.00;;;;5075851;28;20426;-81
2020/12/12 09:26:52;;;;;;;29.73;24.73;;;6.40;71.60;8.30;98658.00;;;;5073152;28;20427;-82
2020/12/12 09:29:20;;;;;;;29.85;24.70;;;6.40;71.60;8.30;98667.00;;;;5080057;28;20491;-81
2020/12/12 09:31:48;;;;;;;29.73;23.60;;;6.40;71.60;8.30;98669.00;;;;5095157;28;20459;-81
2020/12/12 09:34:17;;;;;;;29.30;24.95;;;6.40;71.70;8.30;98656.00;;;;5069428;28;20421;-83
2020/12/12 09:36:44;;;;;;;31.30;26.92;;;6.40;71.40;8.30;98691.00;;;;5067200;28;20490;-81
2020/12/12 09:39:12;;;;;;;31.27;25.55;;;6.50;71.30;8.30;98677.00;;;;5066697;28;20417;-83
2020/12/12 09:41:39;;;;;;;30.50;25.80;;;6.40;71.10;8.40;98672.00;;;;5068113;28;20430;-84
2020/12/12 09:44:08;;;;;;;31.80;26.45;;;6.50;71.10;8.50;98682.00;;;;5083425;28;20421;-80
2020/12/12 09:46:36;;;;;;;31.63;25.65;;;6.60;71.20;8.50;98675.00;;;;5076201;28;20425;-80
2020/12/12 09:49:03;;;;;;;30.70;25.90;;;6.60;71.00;8.60;98680.00;;;;5074086;28;20429;-80
2020/12/12 09:51:34;;;;;;;31.20;26.23;;;6.70;70.50;8.60;98680.00;;;;5057621;28;20456;-81
2020/12/12 09:54:09;;;;;;;31.58;26.05;;;6.70;70.10;8.60;98697.00;;;;5072759;28;20405;-80
2020/12/12 09:56:37;;;;;;;30.40;26.02;;;6.80;70.20;8.70;98682.00;;;;5067754;28;20459;-81
2020/12/12 09:59:05;;;;;;;31.63;26.70;;;6.80;69.60;8.80;98701.00;;;;5045698;28;20493;-83
2020/12/12 10:01:34;;;;;;;30.33;25.92;;;6.80;69.50;8.80;98674.00;;;;5042756;28;20416;-80
2020/12/12 10:04:02;;;;;;;29.70;25.23;;;7.00;69.50;9.00;98707.00;;;;5057061;28;20506;-80
2020/12/12 10:06:33;;;;;;;29.52;26.08;;;7.00;69.30;9.00;98687.00;;;;5066752;28;20868;-82
2020/12/12 10:09:00;;;;;;;30.05;25.42;;;7.00;69.00;9.10;98705.00;;;;5064821;28;20440;-81
2020/12/12 10:11:28;;;;;;;28.75;24.63;;;7.10;68.20;9.10;98693.00;;;;5046766;28;20432;-82
2020/12/12 10:13:55;;;;;;;30.77;26.13;;;7.10;67.50;9.00;98715.00;;;;5054587;28;20447;-82
2020/12/12 10:16:23;;;;;;;27.48;24.02;;;7.00;67.40;8.90;98697.00;;;;5056352;28;20457;-82
2020/12/12 10:18:51;;;;;;;29.67;26.00;;;7.00;67.00;9.00;98712.00;;;;5054380;28;20429;-81
2020/12/12 10:21:19;;;;;;;29.80;24.65;;;6.90;68.00;9.00;98712.00;;;;5053894;28;20852;-81
2020/12/12 10:23:46;;;;;;;29.30;25.25;;;7.00;68.30;9.00;98704.00;;;;5053374;28;20429;-81
2020/12/12 10:26:14;;;;;;;29.70;25.55;;;7.00;68.20;9.10;98700.00;;;;5055104;28;20915;-81
2020/12/12 10:28:41;;;;;;;31.73;25.60;;;7.10;68.00;9.10;98704.00;;;;5055478;28;20514;-82
2020/12/12 10:31:09;;;;;;;30.60;24.35;;;7.20;68.30;9.10;98714.00;;;;5054433;28;20425;-81
2020/12/12 10:33:37;;;;;;;27.45;23.83;;;7.10;67.50;9.10;98687.00;;;;5054597;28;20428;-82
2020/12/12 10:36:22;;;;;;;31.45;25.70;;;7.00;66.80;9.10;98720.00;;;;5051526;28;20430;-83
2020/12/12 10:38:51;;;;;;;30.20;24.87;;;7.00;67.40;9.10;98716.00;;;;5035841;28;20589;-81
2020/12/12 10:41:19;;;;;;;28.42;23.73;;;7.00;67.40;9.00;98711.00;;;;5044026;28;20421;-82
2020/12/12 10:43:48;;;;;;;29.30;24.70;;;7.00;67.40;9.10;98725.00;;;;5057120;28;20424;-82
2020/12/12 10:46:15;;;;;;;28.45;24.38;;;7.10;67.50;9.10;98718.00;;;;5055660;28;20509;-81
2020/12/12 10:48:43;;;;;;;28.50;24.40;;;7.10;67.20;9.10;98725.00;;;;5072073;28;20488;-82
2020/12/12 10:51:10;;;;;;;29.10;24.80;;;7.20;67.60;9.20;98707.00;;;;5055583;28;20426;-81
2020/12/12 10:53:39;;;;;;;27.90;23.57;;;7.20;67.20;9.20;98716.00;;;;5061343;28;20421;-81
2020/12/12 10:56:06;;;;;;;28.90;25.33;;;7.10;67.00;9.20;98718.00;;;;5055928;28;20480;-81
2020/12/12 10:58:34;;;;;;;28.42;24.38;;;7.10;67.50;9.20;98705.00;;;;5054341;28;20421;-82
2020/12/12 11:01:02;;;;;;;28.80;24.75;;;7.20;67.60;9.30;98725.00;;;;5056863;28;20420;-80
2020/12/12 11:03:30;;;;;;;28.92;24.55;;;7.20;67.10;9.40;98711.00;;;;5058749;28;20944;-82
2020/12/12 11:05:57;;;;;;;29.80;24.88;;;7.30;67.10;9.50;98717.00;;;;5061006;28;20417;-82